sensor_id;sensor_type;location;lat;lon;timestamp;P1;durP1;ratioP1;P2;durP2;ratioP2
18290;SDS011;9271;48.590;8.866;2023-06-19T00:02:23;6.20;;;5.60;;
18290;SDS011;9271;48.590;8.866;2023-06-19T00:04:49;5.80;;;5.23;;
18290;SDS011;9271;48.590;8.866;2023-06-19T00:07:16;5.73;;;5.13;;
18290;SDS011;9271;48.590;8.866;2023-06-19T00:09:42;8.30;;;5.33;;
18290;SDS011;9271;48.590;8.866;2023-06-19T00:12:10;7.03;;;6.00;;
18290;SDS011;9271;48.590;8.866;2023-06-19T00:14:37;6.70;;;6.10;;
18290;SDS011;9271;48.590;8.866;2023-06-19T00:17:04;8.17;;;5.67;;
18290;SDS011;9271;48.590;8.866;2023-06-19T00:19:32;6.43;;;5.93;;
18290;SDS011;9271;48.590;8.866;2023-06-19T00:22:01;6.33;;;5.73;;
18290;SDS011;9271;48.590;8.866;2023-06-19T00:24:28;6.43;;;5.83;;
18290;SDS011;9271;48.590;8.866;2023-06-19T00:26:54;7.50;;;5.80;;
18290;SDS011;9271;48.590;8.866;2023-06-19T00:29:26;7.40;;;6.03;;
18290;SDS011;9271;48.590;8.866;2023-06-19T00:31:53;6.53;;;6.03;;
18290;SDS011;9271;48.590;8.866;2023-06-19T00:34:20;6.50;;;5.90;;
18290;SDS011;9271;48.590;8.866;2023-06-19T00:36:49;8.23;;;6.20;;
18290;SDS011;9271;48.590;8.866;2023-06-19T00:39:16;6.43;;;5.83;;
18290;SDS011;9271;48.590;8.866;2023-06-19T00:41:43;6.10;;;5.60;;
18290;SDS011;9271;48.590;8.866;2023-06-19T00:44:13;6.27;;;5.67;;
18290;SDS011;9271;48.590;8.866;2023-06-19T00:46:41;6.13;;;5.63;;
18290;SDS011;9271;48.590;8.866;2023-06-19T00:49:08;6.40;;;5.80;;
18290;SDS011;9271;48.590;8.866;2023-06-19T00:51:34;6.53;;;5.97;;
18290;SDS011;9271;48.590;8.866;2023-06-19T00:54:01;6.87;;;5.60;;
18290;SDS011;9271;48.590;8.866;2023-06-19T00:56:29;10.77;;;6.50;;
18290;SDS011;9271;48.590;8.866;2023-06-19T00:58:55;7.03;;;6.00;;
18290;SDS011;9271;48.590;8.866;2023-06-19T01:01:22;6.10;;;5.50;;
18290;SDS011;9271;48.590;8.866;2023-06-19T01:03:50;5.63;;;5.13;;
18290;SDS011;9271;48.590;8.866;2023-06-19T01:06:17;9.37;;;4.63;;
18290;SDS011;9271;48.590;8.866;2023-06-19T01:08:49;6.53;;;4.30;;
18290;SDS011;9271;48.590;8.866;2023-06-19T01:11:23;9.47;;;4.67;;
18290;SDS011;9271;48.590;8.866;2023-06-19T01:13:55;6.63;;;4.60;;
18290;SDS011;9271;48.590;8.866;2023-06-19T01:16:25;5.97;;;4.30;;
18290;SDS011;9271;48.590;8.866;2023-06-19T01:18:53;4.63;;;4.20;;
18290;SDS011;9271;48.590;8.866;2023-06-19T01:21:21;5.77;;;4.33;;
18290;SDS011;9271;48.590;8.866;2023-06-19T01:23:49;4.93;;;4.17;;
18290;SDS011;9271;48.590;8.866;2023-06-19T01:26:16;4.47;;;4.17;;
18290;SDS011;9271;48.590;8.866;2023-06-19T01:28:43;4.80;;;4.30;;
18290;SDS011;9271;48.590;8.866;2023-06-19T01:31:12;4.70;;;4.30;;
18290;SDS011;9271;48.590;8.866;2023-06-19T01:33:42;4.73;;;4.20;;
18290;SDS011;9271;48.590;8.866;2023-06-19T01:36:10;4.67;;;3.90;;
18290;SDS011;9271;48.590;8.866;2023-06-19T01:38:39;3.90;;;3.40;;
18290;SDS011;9271;48.590;8.866;2023-06-19T01:41:10;4.00;;;3.70;;
18290;SDS011;9271;48.590;8.866;2023-06-19T01:43:37;4.33;;;4.00;;
18290;SDS011;9271;48.590;8.866;2023-06-19T01:46:05;3.90;;;3.60;;
18290;SDS011;9271;48.590;8.866;2023-06-19T01:48:32;3.73;;;3.43;;
18290;SDS011;9271;48.590;8.866;2023-06-19T01:51:00;7.50;;;3.70;;
18290;SDS011;9271;48.590;8.866;2023-06-19T01:53:29;4.37;;;3.37;;
18290;SDS011;9271;48.590;8.866;2023-06-19T01:55:56;4.77;;;3.50;;
18290;SDS011;9271;48.590;8.866;2023-06-19T01:58:24;3.70;;;3.47;;
18290;SDS011;9271;48.590;8.866;2023-06-19T02:00:51;4.93;;;3.03;;
18290;SDS011;9271;48.590;8.866;2023-06-19T02:03:17;3.50;;;3.20;;
18290;SDS011;9271;48.590;8.866;2023-06-19T02:05:44;3.33;;;3.00;;
18290;SDS011;9271;48.590;8.866;2023-06-19T02:08:11;3.30;;;3.10;;
18290;SDS011;9271;48.590;8.866;2023-06-19T02:10:37;3.93;;;3.30;;
18290;SDS011;9271;48.590;8.866;2023-06-19T02:13:04;3.37;;;3.07;;
18290;SDS011;9271;48.590;8.866;2023-06-19T02:15:32;3.30;;;3.10;;
18290;SDS011;9271;48.590;8.866;2023-06-19T02:17:59;3.30;;;3.10;;
18290;SDS011;9271;48.590;8.866;2023-06-19T02:20:25;3.63;;;2.87;;
18290;SDS011;9271;48.590;8.866;2023-06-19T02:22:52;3.20;;;2.90;;
18290;SDS011;9271;48.590;8.866;2023-06-19T02:25:19;3.27;;;3.03;;
18290;SDS011;9271;48.590;8.866;2023-06-19T02:27:45;3.87;;;3.47;;
18290;SDS011;9271;48.590;8.866;2023-06-19T02:30:12;3.93;;;3.60;;
18290;SDS011;9271;48.590;8.866;2023-06-19T02:32:41;5.30;;;4.00;;
18290;SDS011;9271;48.590;8.866;2023-06-19T02:35:08;4.10;;;3.80;;
18290;SDS011;9271;48.590;8.866;2023-06-19T02:37:36;4.97;;;3.87;;
18290;SDS011;9271;48.590;8.866;2023-06-19T02:40:03;5.70;;;4.20;;
18290;SDS011;9271;48.590;8.866;2023-06-19T02:42:31;4.40;;;4.10;;
18290;SDS011;9271;48.590;8.866;2023-06-19T02:44:58;4.33;;;4.00;;
18290;SDS011;9271;48.590;8.866;2023-06-19T02:47:28;6.73;;;4.10;;
18290;SDS011;9271;48.590;8.866;2023-06-19T02:49:56;4.83;;;4.10;;
18290;SDS011;9271;48.590;8.866;2023-06-19T02:52:23;4.17;;;3.87;;
18290;SDS011;9271;48.590;8.866;2023-06-19T02:54:50;4.23;;;3.93;;
18290;SDS011;9271;48.590;8.866;2023-06-19T02:57:16;4.10;;;3.80;;
18290;SDS011;9271;48.590;8.866;2023-06-19T02:59:43;5.37;;;4.33;;
18290;SDS011;9271;48.590;8.866;2023-06-19T03:02:11;6.87;;;5.23;;
18290;SDS011;9271;48.590;8.866;2023-06-19T03:04:37;7.67;;;5.10;;
18290;SDS011;9271;48.590;8.866;2023-06-19T03:07:07;5.20;;;4.80;;
18290;SDS011;9271;48.590;8.866;2023-06-19T03:09:33;5.33;;;4.57;;
18290;SDS011;9271;48.590;8.866;2023-06-19T03:12:00;5.40;;;4.70;;
18290;SDS011;9271;48.590;8.866;2023-06-19T03:14:27;6.17;;;5.20;;
18290;SDS011;9271;48.590;8.866;2023-06-19T03:16:53;4.93;;;4.53;;
18290;SDS011;9271;48.590;8.866;2023-06-19T03:19:20;5.60;;;3.93;;
18290;SDS011;9271;48.590;8.866;2023-06-19T03:21:47;5.03;;;4.63;;
18290;SDS011;9271;48.590;8.866;2023-06-19T03:24:15;4.63;;;4.23;;
18290;SDS011;9271;48.590;8.866;2023-06-19T03:26:41;5.07;;;4.23;;
18290;SDS011;9271;48.590;8.866;2023-06-19T03:29:08;3.50;;;3.30;;
18290;SDS011;9271;48.590;8.866;2023-06-19T03:31:34;4.57;;;4.23;;
18290;SDS011;9271;48.590;8.866;2023-06-19T03:34:01;4.50;;;4.10;;
18290;SDS011;9271;48.590;8.866;2023-06-19T03:36:28;6.53;;;4.50;;
18290;SDS011;9271;48.590;8.866;2023-06-19T03:38:54;5.43;;;3.97;;
18290;SDS011;9271;48.590;8.866;2023-06-19T03:41:22;4.37;;;3.97;;
18290;SDS011;9271;48.590;8.866;2023-06-19T03:43:49;6.40;;;3.70;;
18290;SDS011;9271;48.590;8.866;2023-06-19T03:46:15;4.33;;;3.77;;
18290;SDS011;9271;48.590;8.866;2023-06-19T03:48:42;4.53;;;4.13;;
18290;SDS011;9271;48.590;8.866;2023-06-19T03:51:09;5.80;;;4.00;;
18290;SDS011;9271;48.590;8.866;2023-06-19T03:53:35;4.70;;;3.87;;
18290;SDS011;9271;48.590;8.866;2023-06-19T03:56:02;3.60;;;3.40;;
18290;SDS011;9271;48.590;8.866;2023-06-19T03:58:30;3.50;;;3.20;;
18290;SDS011;9271;48.590;8.866;2023-06-19T04:00:57;3.50;;;3.30;;
18290;SDS011;9271;48.590;8.866;2023-06-19T04:03:23;3.70;;;3.43;;
18290;SDS011;9271;48.590;8.866;2023-06-19T04:05:50;3.30;;;3.10;;
18290;SDS011;9271;48.590;8.866;2023-06-19T04:08:17;3.60;;;3.30;;
18290;SDS011;9271;48.590;8.866;2023-06-19T04:10:43;2.70;;;2.60;;
18290;SDS011;9271;48.590;8.866;2023-06-19T04:13:10;3.00;;;2.70;;
18290;SDS011;9271;48.590;8.866;2023-06-19T04:15:38;2.90;;;2.70;;
18290;SDS011;9271;48.590;8.866;2023-06-19T04:18:04;2.97;;;2.73;;
18290;SDS011;9271;48.590;8.866;2023-06-19T04:20:31;3.03;;;2.73;;
18290;SDS011;9271;48.590;8.866;2023-06-19T04:22:58;3.00;;;2.70;;
18290;SDS011;9271;48.590;8.866;2023-06-19T04:25:26;3.10;;;2.80;;
18290;SDS011;9271;48.590;8.866;2023-06-19T04:27:53;2.93;;;2.73;;
18290;SDS011;9271;48.590;8.866;2023-06-19T04:30:19;2.87;;;2.67;;
18290;SDS011;9271;48.590;8.866;2023-06-19T04:32:48;2.83;;;2.63;;
18290;SDS011;9271;48.590;8.866;2023-06-19T04:35:14;3.47;;;2.67;;
18290;SDS011;9271;48.590;8.866;2023-06-19T04:37:43;3.40;;;3.00;;
18290;SDS011;9271;48.590;8.866;2023-06-19T04:40:10;3.60;;;2.80;;
18290;SDS011;9271;48.590;8.866;2023-06-19T04:42:37;2.63;;;2.40;;
18290;SDS011;9271;48.590;8.866;2023-06-19T04:45:04;2.83;;;2.63;;
18290;SDS011;9271;48.590;8.866;2023-06-19T04:47:33;3.23;;;2.93;;
18290;SDS011;9271;48.590;8.866;2023-06-19T04:50:01;5.33;;;2.80;;
18290;SDS011;9271;48.590;8.866;2023-06-19T04:52:27;3.27;;;3.00;;
18290;SDS011;9271;48.590;8.866;2023-06-19T04:54:54;3.30;;;3.10;;
18290;SDS011;9271;48.590;8.866;2023-06-19T04:57:21;3.37;;;3.10;;
18290;SDS011;9271;48.590;8.866;2023-06-19T04:59:47;3.30;;;3.00;;
18290;SDS011;9271;48.590;8.866;2023-06-19T05:02:14;3.67;;;3.37;;
18290;SDS011;9271;48.590;8.866;2023-06-19T05:04:41;3.50;;;3.30;;
18290;SDS011;9271;48.590;8.866;2023-06-19T05:07:09;3.50;;;3.20;;
18290;SDS011;9271;48.590;8.866;2023-06-19T05:09:37;4.27;;;3.00;;
18290;SDS011;9271;48.590;8.866;2023-06-19T05:12:04;7.70;;;2.97;;
18290;SDS011;9271;48.590;8.866;2023-06-19T05:14:31;2.83;;;2.53;;
18290;SDS011;9271;48.590;8.866;2023-06-19T05:16:58;2.83;;;2.63;;
18290;SDS011;9271;48.590;8.866;2023-06-19T05:19:24;2.93;;;2.73;;
18290;SDS011;9271;48.590;8.866;2023-06-19T05:21:51;4.90;;;3.13;;
18290;SDS011;9271;48.590;8.866;2023-06-19T05:24:19;3.20;;;2.90;;
18290;SDS011;9271;48.590;8.866;2023-06-19T05:26:46;3.20;;;3.00;;
18290;SDS011;9271;48.590;8.866;2023-06-19T05:29:12;3.00;;;2.80;;
18290;SDS011;9271;48.590;8.866;2023-06-19T05:31:39;3.33;;;3.00;;
18290;SDS011;9271;48.590;8.866;2023-06-19T05:34:05;3.20;;;3.00;;
18290;SDS011;9271;48.590;8.866;2023-06-19T05:36:32;3.53;;;3.30;;
18290;SDS011;9271;48.590;8.866;2023-06-19T05:38:59;4.07;;;3.07;;
18290;SDS011;9271;48.590;8.866;2023-06-19T05:41:27;3.30;;;3.10;;
18290;SDS011;9271;48.590;8.866;2023-06-19T05:43:55;3.80;;;3.17;;
18290;SDS011;9271;48.590;8.866;2023-06-19T05:46:22;3.60;;;3.30;;
18290;SDS011;9271;48.590;8.866;2023-06-19T05:48:49;3.30;;;3.10;;
18290;SDS011;9271;48.590;8.866;2023-06-19T05:51:15;4.60;;;3.40;;
18290;SDS011;9271;48.590;8.866;2023-06-19T05:53:42;3.60;;;3.40;;
18290;SDS011;9271;48.590;8.866;2023-06-19T05:56:09;3.60;;;3.37;;
18290;SDS011;9271;48.590;8.866;2023-06-19T05:58:36;4.13;;;3.73;;
18290;SDS011;9271;48.590;8.866;2023-06-19T06:01:03;3.60;;;3.30;;
18290;SDS011;9271;48.590;8.866;2023-06-19T06:03:30;3.40;;;3.10;;
18290;SDS011;9271;48.590;8.866;2023-06-19T06:05:57;3.30;;;3.10;;
18290;SDS011;9271;48.590;8.866;2023-06-19T06:08:27;3.10;;;2.90;;
18290;SDS011;9271;48.590;8.866;2023-06-19T06:10:54;2.83;;;2.63;;
18290;SDS011;9271;48.590;8.866;2023-06-19T06:13:21;3.30;;;3.00;;
18290;SDS011;9271;48.590;8.866;2023-06-19T06:15:49;3.53;;;3.23;;
18290;SDS011;9271;48.590;8.866;2023-06-19T06:18:16;4.13;;;3.03;;
18290;SDS011;9271;48.590;8.866;2023-06-19T06:20:42;3.60;;;3.27;;
18290;SDS011;9271;48.590;8.866;2023-06-19T06:23:09;3.57;;;3.13;;
18290;SDS011;9271;48.590;8.866;2023-06-19T06:25:36;3.60;;;3.30;;
18290;SDS011;9271;48.590;8.866;2023-06-19T06:28:02;5.50;;;3.47;;
18290;SDS011;9271;48.590;8.866;2023-06-19T06:30:30;5.10;;;3.40;;
18290;SDS011;9271;48.590;8.866;2023-06-19T06:32:58;8.70;;;3.30;;
18290;SDS011;9271;48.590;8.866;2023-06-19T06:35:24;3.50;;;3.20;;
18290;SDS011;9271;48.590;8.866;2023-06-19T06:37:51;6.50;;;3.30;;
18290;SDS011;9271;48.590;8.866;2023-06-19T06:40:18;3.20;;;3.00;;
18290;SDS011;9271;48.590;8.866;2023-06-19T06:42:44;3.50;;;3.30;;
18290;SDS011;9271;48.590;8.866;2023-06-19T06:45:12;4.10;;;3.80;;
18290;SDS011;9271;48.590;8.866;2023-06-19T06:47:39;4.10;;;3.23;;
18290;SDS011;9271;48.590;8.866;2023-06-19T06:50:08;4.07;;;3.27;;
18290;SDS011;9271;48.590;8.866;2023-06-19T06:52:35;3.57;;;3.27;;
18290;SDS011;9271;48.590;8.866;2023-06-19T06:55:02;3.80;;;3.50;;
18290;SDS011;9271;48.590;8.866;2023-06-19T06:57:29;4.87;;;3.63;;
18290;SDS011;9271;48.590;8.866;2023-06-19T06:59:56;5.03;;;3.57;;
18290;SDS011;9271;48.590;8.866;2023-06-19T07:02:22;3.87;;;3.50;;
18290;SDS011;9271;48.590;8.866;2023-06-19T07:04:49;5.57;;;3.50;;
18290;SDS011;9271;48.590;8.866;2023-06-19T07:07:18;4.77;;;3.23;;
18290;SDS011;9271;48.590;8.866;2023-06-19T07:09:45;4.37;;;3.53;;
18290;SDS011;9271;48.590;8.866;2023-06-19T07:12:12;4.10;;;3.63;;
18290;SDS011;9271;48.590;8.866;2023-06-19T07:14:39;5.07;;;3.47;;
18290;SDS011;9271;48.590;8.866;2023-06-19T07:17:05;3.70;;;3.40;;
18290;SDS011;9271;48.590;8.866;2023-06-19T07:19:33;3.53;;;3.10;;
18290;SDS011;9271;48.590;8.866;2023-06-19T07:21:59;3.60;;;3.40;;
18290;SDS011;9271;48.590;8.866;2023-06-19T07:24:27;3.80;;;3.43;;
18290;SDS011;9271;48.590;8.866;2023-06-19T07:26:54;3.97;;;3.57;;
18290;SDS011;9271;48.590;8.866;2023-06-19T07:29:21;3.63;;;3.33;;
18290;SDS011;9271;48.590;8.866;2023-06-19T07:31:48;3.70;;;3.40;;
18290;SDS011;9271;48.590;8.866;2023-06-19T07:34:14;3.60;;;3.30;;
18290;SDS011;9271;48.590;8.866;2023-06-19T07:36:41;4.50;;;3.63;;
18290;SDS011;9271;48.590;8.866;2023-06-19T07:39:08;3.80;;;3.43;;
18290;SDS011;9271;48.590;8.866;2023-06-19T07:41:36;4.33;;;3.30;;
18290;SDS011;9271;48.590;8.866;2023-06-19T07:44:03;4.07;;;3.60;;
18290;SDS011;9271;48.590;8.866;2023-06-19T07:46:30;3.70;;;3.43;;
18290;SDS011;9271;48.590;8.866;2023-06-19T07:48:57;3.77;;;3.47;;
18290;SDS011;9271;48.590;8.866;2023-06-19T07:51:23;3.70;;;3.40;;
18290;SDS011;9271;48.590;8.866;2023-06-19T07:53:50;3.83;;;3.53;;
18290;SDS011;9271;48.590;8.866;2023-06-19T07:56:16;4.03;;;3.63;;
18290;SDS011;9271;48.590;8.866;2023-06-19T07:58:44;3.60;;;3.30;;
18290;SDS011;9271;48.590;8.866;2023-06-19T08:01:12;3.80;;;3.30;;
18290;SDS011;9271;48.590;8.866;2023-06-19T08:03:38;3.20;;;3.00;;
18290;SDS011;9271;48.590;8.866;2023-06-19T08:06:05;3.30;;;3.00;;
18290;SDS011;9271;48.590;8.866;2023-06-19T08:08:31;3.47;;;3.23;;
18290;SDS011;9271;48.590;8.866;2023-06-19T08:10:58;4.20;;;3.40;;
18290;SDS011;9271;48.590;8.866;2023-06-19T08:13:25;3.50;;;3.20;;
18290;SDS011;9271;48.590;8.866;2023-06-19T08:15:53;3.73;;;3.43;;
18290;SDS011;9271;48.590;8.866;2023-06-19T08:18:19;3.73;;;2.70;;
18290;SDS011;9271;48.590;8.866;2023-06-19T08:20:46;3.40;;;3.20;;
18290;SDS011;9271;48.590;8.866;2023-06-19T08:23:12;3.40;;;3.10;;
18290;SDS011;9271;48.590;8.866;2023-06-19T08:25:39;3.27;;;2.90;;
18290;SDS011;9271;48.590;8.866;2023-06-19T08:28:06;3.00;;;2.80;;
18290;SDS011;9271;48.590;8.866;2023-06-19T08:30:33;3.30;;;3.00;;
18290;SDS011;9271;48.590;8.866;2023-06-19T08:33:01;3.10;;;2.90;;
18290;SDS011;9271;48.590;8.866;2023-06-19T08:35:28;3.10;;;2.80;;
18290;SDS011;9271;48.590;8.866;2023-06-19T08:37:54;3.63;;;2.50;;
18290;SDS011;9271;48.590;8.866;2023-06-19T08:40:21;4.13;;;2.50;;
18290;SDS011;9271;48.590;8.866;2023-06-19T08:42:48;3.10;;;2.80;;
18290;SDS011;9271;48.590;8.866;2023-06-19T08:45:17;3.00;;;2.70;;
18290;SDS011;9271;48.590;8.866;2023-06-19T08:47:46;3.40;;;3.10;;
18290;SDS011;9271;48.590;8.866;2023-06-19T08:50:14;3.80;;;3.00;;
18290;SDS011;9271;48.590;8.866;2023-06-19T08:52:41;5.25;;;3.40;;
18290;SDS011;9271;48.590;8.866;2023-06-19T08:55:08;3.22;;;2.85;;
18290;SDS011;9271;48.590;8.866;2023-06-19T08:57:35;3.88;;;2.75;;
18290;SDS011;9271;48.590;8.866;2023-06-19T09:00:04;2.65;;;2.45;;
18290;SDS011;9271;48.590;8.866;2023-06-19T09:02:36;3.17;;;2.60;;
18290;SDS011;9271;48.590;8.866;2023-06-19T09:05:15;2.80;;;2.67;;
18290;SDS011;9271;48.590;8.866;2023-06-19T09:07:43;2.78;;;2.60;;
18290;SDS011;9271;48.590;8.866;2023-06-19T09:10:14;3.05;;;2.55;;
18290;SDS011;9271;48.590;8.866;2023-06-19T09:12:42;2.53;;;2.40;;
18290;SDS011;9271;48.590;8.866;2023-06-19T09:15:12;2.97;;;2.38;;
18290;SDS011;9271;48.590;8.866;2023-06-19T09:17:39;3.03;;;2.42;;
18290;SDS011;9271;48.590;8.866;2023-06-19T09:20:06;2.42;;;2.33;;
18290;SDS011;9271;48.590;8.866;2023-06-19T09:22:35;2.17;;;2.08;;
18290;SDS011;9271;48.590;8.866;2023-06-19T09:25:01;2.10;;;2.00;;
18290;SDS011;9271;48.590;8.866;2023-06-19T09:27:31;2.30;;;2.13;;
18290;SDS011;9271;48.590;8.866;2023-06-19T09:30:00;2.75;;;2.50;;
18290;SDS011;9271;48.590;8.866;2023-06-19T09:32:28;2.20;;;2.10;;
18290;SDS011;9271;48.590;8.866;2023-06-19T09:34:55;2.38;;;2.28;;
18290;SDS011;9271;48.590;8.866;2023-06-19T09:37:24;2.10;;;2.00;;
18290;SDS011;9271;48.590;8.866;2023-06-19T09:39:53;4.53;;;1.90;;
18290;SDS011;9271;48.590;8.866;2023-06-19T09:42:24;3.45;;;2.30;;
18290;SDS011;9271;48.590;8.866;2023-06-19T09:44:55;2.30;;;2.20;;
18290;SDS011;9271;48.590;8.866;2023-06-19T09:47:27;2.30;;;2.20;;
18290;SDS011;9271;48.590;8.866;2023-06-19T09:49:57;2.60;;;1.92;;
18290;SDS011;9271;48.590;8.866;2023-06-19T09:52:24;2.72;;;2.00;;
18290;SDS011;9271;48.590;8.866;2023-06-19T09:54:54;2.22;;;1.95;;
18290;SDS011;9271;48.590;8.866;2023-06-19T09:57:21;2.00;;;1.90;;
18290;SDS011;9271;48.590;8.866;2023-06-19T09:59:49;2.45;;;1.90;;
18290;SDS011;9271;48.590;8.866;2023-06-19T10:02:19;3.00;;;1.95;;
18290;SDS011;9271;48.590;8.866;2023-06-19T10:04:46;1.98;;;1.80;;
18290;SDS011;9271;48.590;8.866;2023-06-19T10:07:16;17.35;;;15.50;;
18290;SDS011;9271;48.590;8.866;2023-06-19T10:09:58;2.20;;;2.10;;
18290;SDS011;9271;48.590;8.866;2023-06-19T10:12:38;2.13;;;1.92;;
18290;SDS011;9271;48.590;8.866;2023-06-19T10:15:15;1.90;;;1.80;;
18290;SDS011;9271;48.590;8.866;2023-06-19T10:17:43;2.20;;;2.10;;
18290;SDS011;9271;48.590;8.866;2023-06-19T10:20:19;3.60;;;2.17;;
18290;SDS011;9271;48.590;8.866;2023-06-19T10:22:55;2.97;;;2.03;;
18290;SDS011;9271;48.590;8.866;2023-06-19T10:25:27;2.28;;;1.83;;
18290;SDS011;9271;48.590;8.866;2023-06-19T10:27:55;1.90;;;1.80;;
18290;SDS011;9271;48.590;8.866;2023-06-19T10:30:21;2.15;;;2.05;;
18290;SDS011;9271;48.590;8.866;2023-06-19T10:32:48;2.33;;;2.20;;
18290;SDS011;9271;48.590;8.866;2023-06-19T10:35:15;2.63;;;2.20;;
18290;SDS011;9271;48.590;8.866;2023-06-19T10:37:46;2.10;;;2.00;;
18290;SDS011;9271;48.590;8.866;2023-06-19T10:40:13;2.20;;;1.90;;
18290;SDS011;9271;48.590;8.866;2023-06-19T10:42:41;2.13;;;2.00;;
18290;SDS011;9271;48.590;8.866;2023-06-19T10:45:09;2.03;;;1.90;;
18290;SDS011;9271;48.590;8.866;2023-06-19T10:47:38;2.03;;;1.63;;
18290;SDS011;9271;48.590;8.866;2023-06-19T10:50:09;1.77;;;1.77;;
18290;SDS011;9271;48.590;8.866;2023-06-19T10:52:36;2.25;;;2.03;;
18290;SDS011;9271;48.590;8.866;2023-06-19T10:55:05;2.10;;;1.88;;
18290;SDS011;9271;48.590;8.866;2023-06-19T10:57:32;5.13;;;2.00;;
18290;SDS011;9271;48.590;8.866;2023-06-19T11:00:00;1.83;;;1.77;;
18290;SDS011;9271;48.590;8.866;2023-06-19T11:02:31;3.50;;;1.90;;
18290;SDS011;9271;48.590;8.866;2023-06-19T11:04:58;2.10;;;1.90;;
18290;SDS011;9271;48.590;8.866;2023-06-19T11:07:24;1.70;;;1.70;;
18290;SDS011;9271;48.590;8.866;2023-06-19T11:09:51;3.72;;;2.08;;
18290;SDS011;9271;48.590;8.866;2023-06-19T11:12:20;1.77;;;1.67;;
18290;SDS011;9271;48.590;8.866;2023-06-19T11:14:47;1.90;;;1.80;;
18290;SDS011;9271;48.590;8.866;2023-06-19T11:17:16;1.95;;;1.70;;
18290;SDS011;9271;48.590;8.866;2023-06-19T11:19:46;2.97;;;2.00;;
18290;SDS011;9271;48.590;8.866;2023-06-19T11:22:13;3.42;;;1.90;;
18290;SDS011;9271;48.590;8.866;2023-06-19T11:24:43;2.60;;;1.85;;
18290;SDS011;9271;48.590;8.866;2023-06-19T11:27:15;2.00;;;1.80;;
18290;SDS011;9271;48.590;8.866;2023-06-19T11:29:44;1.80;;;1.70;;
18290;SDS011;9271;48.590;8.866;2023-06-19T11:32:12;2.10;;;2.00;;
18290;SDS011;9271;48.590;8.866;2023-06-19T11:34:41;2.08;;;1.90;;
18290;SDS011;9271;48.590;8.866;2023-06-19T11:37:12;1.92;;;1.83;;
18290;SDS011;9271;48.590;8.866;2023-06-19T11:39:39;2.28;;;1.80;;
18290;SDS011;9271;48.590;8.866;2023-06-19T11:42:06;1.80;;;1.70;;
18290;SDS011;9271;48.590;8.866;2023-06-19T11:44:33;2.55;;;1.70;;
18290;SDS011;9271;48.590;8.866;2023-06-19T11:47:00;1.80;;;1.70;;
18290;SDS011;9271;48.590;8.866;2023-06-19T11:49:27;2.13;;;2.03;;
18290;SDS011;9271;48.590;8.866;2023-06-19T11:52:01;2.20;;;1.92;;
18290;SDS011;9271;48.590;8.866;2023-06-19T11:54:28;1.65;;;1.65;;
18290;SDS011;9271;48.590;8.866;2023-06-19T11:56:55;1.70;;;1.60;;
18290;SDS011;9271;48.590;8.866;2023-06-19T11:59:21;1.50;;;1.50;;
18290;SDS011;9271;48.590;8.866;2023-06-19T12:01:48;1.80;;;1.70;;
18290;SDS011;9271;48.590;8.866;2023-06-19T12:04:15;2.05;;;1.80;;
18290;SDS011;9271;48.590;8.866;2023-06-19T12:06:41;1.58;;;1.52;;
18290;SDS011;9271;48.590;8.866;2023-06-19T12:09:09;2.85;;;1.90;;
18290;SDS011;9271;48.590;8.866;2023-06-19T12:11:36;1.77;;;1.67;;
18290;SDS011;9271;48.590;8.866;2023-06-19T12:14:03;2.10;;;2.00;;
18290;SDS011;9271;48.590;8.866;2023-06-19T12:16:29;2.00;;;1.90;;
18290;SDS011;9271;48.590;8.866;2023-06-19T12:18:56;2.30;;;2.10;;
18290;SDS011;9271;48.590;8.866;2023-06-19T12:21:23;2.45;;;2.13;;
18290;SDS011;9271;48.590;8.866;2023-06-19T12:23:49;2.25;;;2.10;;
18290;SDS011;9271;48.590;8.866;2023-06-19T12:26:17;2.17;;;1.98;;
18290;SDS011;9271;48.590;8.866;2023-06-19T12:28:44;2.30;;;2.20;;
18290;SDS011;9271;48.590;8.866;2023-06-19T12:31:11;2.10;;;2.00;;
18290;SDS011;9271;48.590;8.866;2023-06-19T12:33:38;2.33;;;2.22;;
18290;SDS011;9271;48.590;8.866;2023-06-19T12:36:09;2.30;;;2.20;;
18290;SDS011;9271;48.590;8.866;2023-06-19T12:38:37;2.40;;;2.17;;
18290;SDS011;9271;48.590;8.866;2023-06-19T12:41:04;2.10;;;2.00;;
18290;SDS011;9271;48.590;8.866;2023-06-19T12:43:32;2.13;;;2.03;;
18290;SDS011;9271;48.590;8.866;2023-06-19T12:45:59;3.08;;;2.20;;
18290;SDS011;9271;48.590;8.866;2023-06-19T12:48:26;4.53;;;2.05;;
18290;SDS011;9271;48.590;8.866;2023-06-19T12:50:53;2.53;;;2.40;;
18290;SDS011;9271;48.590;8.866;2023-06-19T12:53:19;2.33;;;2.22;;
18290;SDS011;9271;48.590;8.866;2023-06-19T12:55:51;2.50;;;2.30;;
18290;SDS011;9271;48.590;8.866;2023-06-19T12:58:18;2.70;;;2.50;;
18290;SDS011;9271;48.590;8.866;2023-06-19T13:00:46;2.45;;;2.22;;
18290;SDS011;9271;48.590;8.866;2023-06-19T13:03:12;2.60;;;2.40;;
18290;SDS011;9271;48.590;8.866;2023-06-19T13:05:39;2.38;;;2.28;;
18290;SDS011;9271;48.590;8.866;2023-06-19T13:08:05;2.65;;;2.25;;
18290;SDS011;9271;48.590;8.866;2023-06-19T13:10:32;2.83;;;2.63;;
18290;SDS011;9271;48.590;8.866;2023-06-19T13:12:59;2.80;;;2.60;;
18290;SDS011;9271;48.590;8.866;2023-06-19T13:15:25;3.25;;;2.13;;
18290;SDS011;9271;48.590;8.866;2023-06-19T13:17:54;2.42;;;2.33;;
18290;SDS011;9271;48.590;8.866;2023-06-19T13:20:21;2.80;;;2.60;;
18290;SDS011;9271;48.590;8.866;2023-06-19T13:22:47;2.50;;;2.40;;
18290;SDS011;9271;48.590;8.866;2023-06-19T13:25:14;2.60;;;2.40;;
18290;SDS011;9271;48.590;8.866;2023-06-19T13:27:41;3.42;;;2.50;;
18290;SDS011;9271;48.590;8.866;2023-06-19T13:30:08;2.80;;;2.60;;
18290;SDS011;9271;48.590;8.866;2023-06-19T13:32:35;2.92;;;2.50;;
18290;SDS011;9271;48.590;8.866;2023-06-19T13:35:04;3.03;;;2.63;;
18290;SDS011;9271;48.590;8.866;2023-06-19T13:37:33;2.50;;;2.40;;
18290;SDS011;9271;48.590;8.866;2023-06-19T13:39:59;2.47;;;2.38;;
18290;SDS011;9271;48.590;8.866;2023-06-19T13:42:26;2.67;;;2.40;;
18290;SDS011;9271;48.590;8.866;2023-06-19T13:44:55;2.70;;;2.50;;
18290;SDS011;9271;48.590;8.866;2023-06-19T13:47:21;2.78;;;2.58;;
18290;SDS011;9271;48.590;8.866;2023-06-19T13:49:50;2.40;;;2.30;;
18290;SDS011;9271;48.590;8.866;2023-06-19T13:52:18;2.55;;;2.42;;
18290;SDS011;9271;48.590;8.866;2023-06-19T13:54:45;2.45;;;2.35;;
18290;SDS011;9271;48.590;8.866;2023-06-19T13:57:11;2.42;;;2.33;;
18290;SDS011;9271;48.590;8.866;2023-06-19T13:59:38;2.85;;;2.30;;
18290;SDS011;9271;48.590;8.866;2023-06-19T14:02:05;2.20;;;2.00;;
18290;SDS011;9271;48.590;8.866;2023-06-19T14:04:31;2.75;;;2.60;;
18290;SDS011;9271;48.590;8.866;2023-06-19T14:06:58;16.48;;;6.45;;
18290;SDS011;9271;48.590;8.866;2023-06-19T14:09:29;3.95;;;3.42;;
18290;SDS011;9271;48.590;8.866;2023-06-19T14:11:56;3.00;;;2.40;;
18290;SDS011;9271;48.590;8.866;2023-06-19T14:14:23;4.60;;;2.53;;
18290;SDS011;9271;48.590;8.866;2023-06-19T14:16:50;2.97;;;2.78;;
18290;SDS011;9271;48.590;8.866;2023-06-19T14:19:16;3.08;;;2.80;;
18290;SDS011;9271;48.590;8.866;2023-06-19T14:21:43;3.00;;;2.80;;
18290;SDS011;9271;48.590;8.866;2023-06-19T14:24:10;3.17;;;2.95;;
18290;SDS011;9271;48.590;8.866;2023-06-19T14:26:38;3.53;;;3.00;;
18290;SDS011;9271;48.590;8.866;2023-06-19T14:29:04;6.63;;;3.28;;
18290;SDS011;9271;48.590;8.866;2023-06-19T14:31:32;4.18;;;2.88;;
18290;SDS011;9271;48.590;8.866;2023-06-19T14:33:58;3.05;;;2.85;;
18290;SDS011;9271;48.590;8.866;2023-06-19T14:36:25;3.10;;;2.90;;
18290;SDS011;9271;48.590;8.866;2023-06-19T14:38:51;3.30;;;3.10;;
18290;SDS011;9271;48.590;8.866;2023-06-19T14:41:18;3.75;;;3.42;;
18290;SDS011;9271;48.590;8.866;2023-06-19T14:43:46;3.30;;;3.03;;
18290;SDS011;9271;48.590;8.866;2023-06-19T14:46:13;3.75;;;3.40;;
18290;SDS011;9271;48.590;8.866;2023-06-19T14:48:40;3.58;;;3.20;;
18290;SDS011;9271;48.590;8.866;2023-06-19T14:51:06;5.05;;;3.40;;
18290;SDS011;9271;48.590;8.866;2023-06-19T14:53:34;3.67;;;3.20;;
18290;SDS011;9271;48.590;8.866;2023-06-19T14:56:01;5.32;;;3.15;;
18290;SDS011;9271;48.590;8.866;2023-06-19T14:58:28;3.60;;;3.30;;
18290;SDS011;9271;48.590;8.866;2023-06-19T15:00:56;3.40;;;3.20;;
18290;SDS011;9271;48.590;8.866;2023-06-19T15:03:23;4.53;;;3.30;;